Time,TemperatureF,DewpointF,PressureIn,WindDirection,WindDirectionDegrees,WindSpeedMPH,WindSpeedGustMPH,Humidity,HourlyPrecipIn,Conditions,Clouds,dailyrainin,SolarRadiationWatts/m^2,SoftwareType,DateUTC
2013-01-10 00:00:00,55.5,53.5,30.42,ENE,78,0.0,1.1,93,0.00,CLR,OVC,0.00,0.0,WeatherDisplay:10.37,2013-01-10 05:00:00,
2013-01-10 00:03:00,55.4,53.4,30.42,ENE,78,0.0,0.0,93,0.00,CLR,OVC,0.00,0.0,WeatherDisplay:10.37,2013-01-10 05:03:00,
2013-01-10 00:08:00,55.4,53.7,30.42,ENE,78,0.0,0.0,94,0.00,CLR,OVC,0.00,0.0,WeatherDisplay:10.37,2013-01-10 05:08:00,
2013-01-10 00:13:00,55.5,53.8,30.42,ENE,78,0.0,0.0,94,0.00,CLR,OVC,0.00,0.0,WeatherDisplay:10.37,2013-01-10 05:13:00,
2013-01-10 00:18:00,55.5,53.8,30.42,ENE,78,0.0,0.0,94,0.00,CLR,OVC,0.00,0.0,WeatherDisplay:10.37,2013-01-10 05:18:00,
2013-01-10 00:23:00,55.4,53.7,30.42,ENE,78,0.0,0.0,94,0.00,CLR,OVC,0.00,0.0,WeatherDisplay:10.37,2013-01-10 05:23:00,
2013-01-10 00:28:00,55.3,53.3,30.42,ENE,78,0.0,0.0,93,0.00,CLR,OVC,0.00,0.0,WeatherDisplay:10.37,2013-01-10 05:28:00,
2013-01-10 00:33:00,55.2,53.2,30.42,ENE,78,0.0,0.0,93,0.00,CLR,OVC,0.00,0.0,WeatherDisplay:10.37,2013-01-10 05:33:00,
2013-01-10 00:38:00,55.1,53.1,30.42,ENE,78,0.0,0.0,93,0.00,CLR,OVC,0.00,0.0,WeatherDisplay:10.37,2013-01-10 05:38:00,
2013-01-10 00:43:00,55.1,53.1,30.42,ENE,78,0.0,0.0,93,0.00,CLR,OVC,0.00,0.0,WeatherDisplay:10.37,2013-01-10 05:43:00,
2013-01-10 00:48:00,54.9,53.2,30.42,ENE,78,0.0,0.0,94,0.00,CLR,OVC,0.00,0.0,WeatherDisplay:10.37,2013-01-10 05:48:00,
2013-01-10 00:53:00,54.9,53.2,30.42,ENE,78,0.0,0.0,94,0.00,CLR,OVC,0.00,0.0,WeatherDisplay:10.37,2013-01-10 05:53:00,
2013-01-10 00:58:00,54.8,53.1,30.42,ENE,78,0.0,0.0,94,0.00,CLR,OVC,0.00,0.0,WeatherDisplay:10.37,2013-01-10 05:58:00,
2013-01-10 01:03:00,54.7,53.0,30.42,ENE,78,0.0,0.0,94,0.00,CLR,OVC,0.00,0.0,WeatherDisplay:10.37,2013-01-10 06:03:00,
2013-01-10 01:08:00,54.7,53.0,30.42,ENE,78,0.0,0.0,94,0.00,CLR,OVC,0.00,0.0,WeatherDisplay:10.37,2013-01-10 06:08:00,
2013-01-10 01:13:00,54.7,53.0,30.42,ENE,78,0.0,0.0,94,0.00,CLR,OVC,0.00,0.0,WeatherDisplay:10.37,2013-01-10 06:13:00,
2013-01-10 01:18:00,54.7,53.0,30.42,ENE,78,0.0,0.0,94,0.00,CLR,OVC,0.00,0.0,WeatherDisplay:10.37,2013-01-10 06:18:00,
2013-01-10 01:23:00,54.7,53.0,30.43,ENE,78,0.0,0.0,94,0.00,CLR,OVC,0.00,0.0,WeatherDisplay:10.37,2013-01-10 06:23:00,
2013-01-10 01:28:00,54.6,52.9,30.43,ENE,78,0.0,0.0,94,0.00,CLR,OVC,0.00,0.0,WeatherDisplay:10.37,2013-01-10 06:28:00,
2013-01-10 01:33:00,54.5,52.8,30.43,ENE,78,0.0,0.0,94,0.00,CLR,OVC,0.00,0.0,WeatherDisplay:10.37,2013-01-10 06:33:00,
2013-01-10 01:38:00,54.4,52.7,30.43,ENE,78,0.0,0.0,94,0.00,CLR,OVC,0.00,0.0,WeatherDisplay:10.37,2013-01-10 06:38:00,
2013-01-10 01:43:00,54.4,53.0,30.43,ENE,78,0.0,0.0,95,0.00,CLR,OVC,0.00,0.0,WeatherDisplay:10.37,2013-01-10 06:43:00,
2013-01-10 01:48:00,54.4,53.0,30.44,ENE,78,0.0,0.0,95,0.00,CLR,OVC,0.00,0.0,WeatherDisplay:10.37,2013-01-10 06:48:00,
2013-01-10 01:53:00,54.4,53.0,30.43,ENE,78,0.0,0.0,95,0.00,CLR,OVC,0.00,0.0,WeatherDisplay:10.37,2013-01-10 06:53:00,
2013-01-10 01:58:00,54.4,53.0,30.44,ENE,78,0.0,0.0,95,0.00,CLR,OVC,0.00,0.0,WeatherDisplay:10.37,2013-01-10 06:58:00,
2013-01-10 02:03:00,54.4,53.0,30.43,ENE,78,0.0,0.0,95,0.00,CLR,OVC,0.00,0.0,WeatherDisplay:10.37,2013-01-10 07:03:00,
2013-01-10 02:08:00,54.4,53.0,30.44,ENE,78,0.0,0.0,95,0.00,CLR,OVC,0.00,0.0,WeatherDisplay:10.37,2013-01-10 07:08:00,
2013-01-10 02:13:00,54.4,53.0,30.43,NE,55,0.0,0.0,95,0.00,CLR,OVC,0.00,0.0,WeatherDisplay:10.37,2013-01-10 07:13:00,
2013-01-10 02:18:00,54.4,53.0,30.43,NE,55,0.0,0.0,95,0.00,CLR,OVC,0.00,0.0,WeatherDisplay:10.37,2013-01-10 07:18:00,
2013-01-10 02:23:00,54.4,53.0,30.43,NE,55,0.0,0.0,95,0.00,CLR,OVC,0.00,0.0,WeatherDisplay:10.37,2013-01-10 07:23:00,
2013-01-10 02:28:00,54.4,53.0,30.44,NE,55,0.0,0.0,95,0.00,CLR,OVC,0.00,0.0,WeatherDisplay:10.37,2013-01-10 07:28:00,
2013-01-10 02:33:00,54.4,53.0,30.44,NE,55,0.0,0.0,95,0.00,CLR,OVC,0.00,0.0,WeatherDisplay:10.37,2013-01-10 07:33:00,
2013-01-10 02:38:00,54.5,53.1,30.44,NE,55,0.0,0.0,95,0.00,CLR,OVC,0.00,0.0,WeatherDisplay:10.37,2013-01-10 07:38:00,
2013-01-10 02:43:00,54.5,53.1,30.44,NE,55,0.0,0.0,95,0.00,CLR,OVC,0.00,0.0,WeatherDisplay:10.37,2013-01-10 07:43:00,
2013-01-10 02:48:00,54.5,53.1,30.44,NE,55,0.0,0.0,95,0.00,CLR,OVC,0.00,0.0,WeatherDisplay:10.37,2013-01-10 07:48:00,
2013-01-10 02:53:00,54.5,53.1,30.44,NE,55,0.0,0.0,95,0.00,CLR,OVC,0.00,0.0,WeatherDisplay:10.37,2013-01-10 07:53:00,
2013-01-10 02:58:00,54.5,53.1,30.44,NE,55,0.0,0.0,95,0.00,CLR,OVC,0.00,0.0,WeatherDisplay:10.37,2013-01-10 07:58:00,
2013-01-10 03:04:00,54.4,53.0,30.44,NE,55,0.0,0.0,95,0.00,CLR,OVC,0.00,0.0,WeatherDisplay:10.37,2013-01-10 08:04:00,
2013-01-10 03:09:00,54.4,53.0,30.44,NE,55,0.0,0.0,95,0.00,CLR,OVC,0.00,0.0,WeatherDisplay:10.37,2013-01-10 08:09:00,
2013-01-10 03:14:00,54.3,52.9,30.43,NE,55,0.0,0.0,95,0.00,CLR,OVC,0.00,0.0,WeatherDisplay:10.37,2013-01-10 08:14:00,
2013-01-10 03:19:00,54.2,52.8,30.43,NE,55,0.0,0.0,95,0.00,CLR,OVC,0.00,0.0,WeatherDisplay:10.37,2013-01-10 08:19:00,
2013-01-10 03:24:00,54.1,52.7,30.43,NE,55,0.0,0.0,95,0.00,CLR,OVC,0.00,0.0,WeatherDisplay:10.37,2013-01-10 08:24:00,
2013-01-10 03:29:00,54.0,52.6,30.43,NE,55,0.0,0.0,95,0.00,CLR,OVC,0.00,0.0,WeatherDisplay:10.37,2013-01-10 08:29:00,
2013-01-10 03:34:00,53.9,52.5,30.43,NE,55,0.0,0.0,95,0.00,CLR,OVC,0.00,0.0,WeatherDisplay:10.37,2013-01-10 08:34:00,
2013-01-10 03:39:00,53.7,52.3,30.43,NE,55,0.0,0.0,95,0.00,CLR,OVC,0.00,0.0,WeatherDisplay:10.37,2013-01-10 08:39:00,
2013-01-10 03:44:00,53.5,52.1,30.43,NE,55,0.0,0.0,95,0.00,CLR,OVC,0.00,0.0,WeatherDisplay:10.37,2013-01-10 08:44:00,
2013-01-10 03:49:00,53.4,52.0,30.43,NE,55,0.0,0.0,95,0.00,CLR,OVC,0.00,0.0,WeatherDisplay:10.37,2013-01-10 08:49:00,
2013-01-10 03:54:00,53.3,51.9,30.43,NE,55,0.0,0.0,95,0.00,CLR,OVC,0.00,0.0,WeatherDisplay:10.37,2013-01-10 08:54:00,
2013-01-10 03:59:00,53.2,51.8,30.43,NE,55,0.0,0.0,95,0.00,CLR,OVC,0.00,0.0,WeatherDisplay:10.37,2013-01-10 08:59:00,
2013-01-10 04:04:00,53.0,51.6,30.43,NE,55,0.0,0.0,95,0.00,CLR,OVC,0.00,0.0,WeatherDisplay:10.37,2013-01-10 09:04:00,
2013-01-10 04:09:00,52.8,51.4,30.43,NE,55,0.0,0.0,95,0.00,CLR,OVC,0.00,0.0,WeatherDisplay:10.37,2013-01-10 09:09:00,
2013-01-10 04:14:00,52.7,51.3,30.43,NE,55,0.0,0.0,95,0.00,CLR,OVC,0.00,0.0,WeatherDisplay:10.37,2013-01-10 09:14:00,
2013-01-10 04:19:00,52.6,51.2,30.43,NE,55,0.0,0.0,95,0.00,CLR,OVC,0.00,0.0,WeatherDisplay:10.37,2013-01-10 09:19:00,
2013-01-10 04:24:00,52.5,51.1,30.43,NE,55,0.0,0.0,95,0.00,CLR,OVC,0.00,0.0,WeatherDisplay:10.37,2013-01-10 09:24:00,
2013-01-10 04:29:00,52.4,51.0,30.43,NE,55,0.0,0.0,95,0.00,CLR,OVC,0.00,0.0,WeatherDisplay:10.37,2013-01-10 09:29:00,
2013-01-10 04:34:00,52.4,51.3,30.43,NE,55,0.0,0.0,96,0.00,CLR,OVC,0.00,0.0,WeatherDisplay:10.37,2013-01-10 09:34:00,
2013-01-10 04:39:00,52.3,51.2,30.43,NE,55,0.0,0.0,96,0.00,CLR,OVC,0.00,0.0,WeatherDisplay:10.37,2013-01-10 09:39:00,
2013-01-10 04:44:00,52.4,51.3,30.43,NE,55,0.0,0.0,96,0.00,CLR,OVC,0.00,0.0,WeatherDisplay:10.37,2013-01-10 09:44:00,
2013-01-10 04:49:00,52.4,51.3,30.43,NE,55,0.0,0.0,96,0.00,CLR,OVC,0.00,0.0,WeatherDisplay:10.37,2013-01-10 09:49:00,
2013-01-10 04:54:00,52.4,51.3,30.43,NE,55,0.0,0.0,96,0.00,CLR,OVC,0.00,0.0,WeatherDisplay:10.37,2013-01-10 09:54:00,
2013-01-10 04:59:00,52.4,51.3,30.43,NE,55,0.0,0.0,96,0.00,CLR,OVC,0.00,0.0,WeatherDisplay:10.37,2013-01-10 09:59:00,
2013-01-10 05:04:00,52.4,51.3,30.43,NE,55,0.0,0.0,96,0.00,CLR,OVC,0.00,0.0,WeatherDisplay:10.37,2013-01-10 10:04:00,
2013-01-10 05:09:00,52.3,51.2,30.43,NE,55,0.0,0.0,96,0.00,CLR,OVC,0.00,0.0,WeatherDisplay:10.37,2013-01-10 10:09:00,
2013-01-10 05:14:00,52.4,51.6,30.43,NE,55,0.0,0.0,97,0.00,CLR,OVC,0.00,0.0,WeatherDisplay:10.37,2013-01-10 10:14:00,
2013-01-10 05:19:00,52.4,51.6,30.43,NE,55,0.0,0.0,97,0.00,CLR,OVC,0.00,0.0,WeatherDisplay:10.37,2013-01-10 10:19:00,
2013-01-10 05:24:00,52.2,51.1,30.43,NE,55,0.0,0.0,96,0.00,CLR,OVC,0.00,0.0,WeatherDisplay:10.37,2013-01-10 10:24:00,
2013-01-10 05:29:00,52.1,51.0,30.44,NE,55,0.0,0.0,96,0.00,CLR,OVC,0.00,0.0,WeatherDisplay:10.37,2013-01-10 10:29:00,
2013-01-10 05:34:00,52.1,51.0,30.44,NE,55,0.0,0.0,96,0.00,CLR,OVC,0.00,0.0,WeatherDisplay:10.37,2013-01-10 10:34:00,
2013-01-10 05:39:00,51.9,50.8,30.44,NNW,348,0.0,0.0,96,0.00,CLR,OVC,0.00,0.0,WeatherDisplay:10.37,2013-01-10 10:39:00,
2013-01-10 05:44:00,51.9,50.8,30.44,North,355,0.0,1.1,96,0.00,CLR,OVC,0.00,0.0,WeatherDisplay:10.37,2013-01-10 10:44:00,
2013-01-10 05:49:00,52.0,51.2,30.44,NNW,338,0.1,0.0,97,0.00,CLR,OVC,0.00,0.0,WeatherDisplay:10.37,2013-01-10 10:49:00,
2013-01-10 05:54:00,52.0,51.2,30.44,North,351,0.0,1.0,97,0.00,CLR,OVC,0.00,0.0,WeatherDisplay:10.37,2013-01-10 10:54:00,
2013-01-10 05:59:00,52.1,51.3,30.43,North,351,0.2,1.1,97,0.00,CLR,OVC,0.00,0.0,WeatherDisplay:10.37,2013-01-10 10:59:00,
2013-01-10 06:05:00,52.1,51.3,30.44,North,355,0.0,0.0,97,0.00,CLR,OVC,0.00,0.0,WeatherDisplay:10.37,2013-01-10 11:05:00,
2013-01-10 06:10:00,52.1,51.3,30.44,NNW,347,0.0,0.0,97,0.00,CLR,OVC,0.00,0.0,WeatherDisplay:10.37,2013-01-10 11:10:00,
2013-01-10 06:15:00,52.1,51.3,30.44,NNW,347,0.0,1.1,97,0.00,CLR,OVC,0.00,0.0,WeatherDisplay:10.37,2013-01-10 11:15:00,
2013-01-10 06:20:00,52.1,51.3,30.44,NNW,347,0.0,0.0,97,0.00,CLR,OVC,0.00,0.0,WeatherDisplay:10.37,2013-01-10 11:20:00,
2013-01-10 06:25:00,51.9,51.1,30.44,NNW,347,0.0,0.0,97,0.00,CLR,OVC,0.00,0.0,WeatherDisplay:10.37,2013-01-10 11:25:00,
2013-01-10 06:30:00,52.0,51.2,30.44,NNW,347,0.5,2.3,97,0.00,CLR,OVC,0.00,0.0,WeatherDisplay:10.37,2013-01-10 11:30:00,
2013-01-10 06:35:00,52.2,51.4,30.44,NNW,347,0.0,0.0,97,0.00,CLR,OVC,0.00,0.0,WeatherDisplay:10.37,2013-01-10 11:35:00,
2013-01-10 06:40:00,52.2,51.4,30.44,NNW,347,0.0,0.0,97,0.00,CLR,OVC,0.00,0.0,WeatherDisplay:10.37,2013-01-10 11:40:00,
2013-01-10 06:45:00,52.3,51.5,30.45,NNW,347,0.0,0.0,97,0.00,CLR,OVC,0.00,0.0,WeatherDisplay:10.37,2013-01-10 11:45:00,
2013-01-10 06:50:00,52.3,51.5,30.45,NNW,346,0.0,0.0,97,0.00,CLR,OVC,0.00,0.0,WeatherDisplay:10.37,2013-01-10 11:50:00,
2013-01-10 06:55:00,52.2,51.4,30.45,NNW,347,0.0,0.0,97,0.00,CLR,OVC,0.00,0.0,WeatherDisplay:10.37,2013-01-10 11:55:00,
2013-01-10 07:00:00,52.0,51.2,30.45,NNW,346,0.0,0.0,97,0.00,CLR,OVC,0.00,0.0,WeatherDisplay:10.37,2013-01-10 12:00:00,
2013-01-10 07:05:00,51.9,51.1,30.46,NNW,347,0.0,0.0,97,0.00,OVC,,0.00,0.0,WeatherDisplay:10.37,2013-01-10 12:05:00,
2013-01-10 07:10:00,51.7,50.9,30.46,NNW,346,0.0,0.0,97,0.00,OVC,,0.00,0.0,WeatherDisplay:10.37,2013-01-10 12:10:00,
2013-01-10 07:15:00,51.6,50.8,30.46,NNW,347,0.0,0.0,97,0.00,OVC,,0.00,0.0,WeatherDisplay:10.37,2013-01-10 12:15:00,
2013-01-10 07:20:00,51.5,50.7,30.46,NNW,347,0.0,0.0,97,0.00,OVC,,0.00,0.0,WeatherDisplay:10.37,2013-01-10 12:20:00,
2013-01-10 07:25:00,51.4,50.6,30.46,NNW,347,0.0,0.0,97,0.00,OVC,,0.00,0.0,WeatherDisplay:10.37,2013-01-10 12:25:00,
2013-01-10 07:30:00,51.3,50.5,30.46,NNW,347,0.0,0.0,97,0.00,OVC,,0.00,0.0,WeatherDisplay:10.37,2013-01-10 12:30:00,
2013-01-10 07:35:00,51.3,50.5,30.47,NNW,346,0.0,0.0,97,0.00,OVC,,0.00,0.0,WeatherDisplay:10.37,2013-01-10 12:35:00,
2013-01-10 07:40:00,51.3,50.5,30.48,NNW,347,0.0,0.0,97,0.00,OVC,,0.00,0.0,WeatherDisplay:10.37,2013-01-10 12:40:00,
2013-01-10 07:45:00,51.3,50.5,30.48,NNW,347,0.1,2.3,97,0.00,OVC,,0.00,0.0,WeatherDisplay:10.37,2013-01-10 12:45:00,
2013-01-10 07:50:00,51.4,50.6,30.48,NNW,347,0.0,0.0,97,0.00,OVC,,0.00,0.0,WeatherDisplay:10.37,2013-01-10 12:50:00,
2013-01-10 07:55:00,51.7,51.2,30.48,NNW,347,0.0,0.0,98,0.00,OVC,,0.00,0.0,WeatherDisplay:10.37,2013-01-10 12:55:00,
2013-01-10 08:00:00,52.0,51.5,30.49,NNW,347,0.0,0.0,98,0.00,OVC,,0.00,0.0,WeatherDisplay:10.37,2013-01-10 13:00:00,
2013-01-10 08:05:00,52.4,51.9,30.49,NNE,33,0.2,2.3,98,0.00,OVC,,0.00,0.0,WeatherDisplay:10.37,2013-01-10 13:05:00,
2013-01-10 08:10:00,53.0,52.5,30.50,North,355,0.5,2.3,98,0.00,OVC,,0.00,0.0,WeatherDisplay:10.37,2013-01-10 13:10:00,
2013-01-10 08:15:00,53.6,53.0,30.50,NNE,30,0.4,2.3,98,0.00,OVC,,0.00,0.0,WeatherDisplay:10.37,2013-01-10 13:15:00,
2013-01-10 08:20:00,54.0,53.4,30.50,NE,51,0.2,2.3,98,0.00,OVC,,0.00,0.0,WeatherDisplay:10.37,2013-01-10 13:20:00,
2013-01-10 08:25:00,54.7,54.1,30.50,NNE,31,2.4,4.0,98,0.00,OVC,,0.00,0.0,WeatherDisplay:10.37,2013-01-10 13:25:00,
2013-01-10 08:30:00,55.3,54.2,30.50,NE,34,2.6,4.6,96,0.00,OVC,,0.00,0.0,WeatherDisplay:10.37,2013-01-10 13:30:00,
2013-01-10 08:35:00,56.1,54.4,30.50,NNW,341,3.6,6.9,94,0.00,OVC,,0.00,0.0,WeatherDisplay:10.37,2013-01-10 13:35:00,
2013-01-10 08:40:00,57.0,54.1,30.50,NE,53,4.4,9.2,90,0.00,OVC,,0.00,0.0,WeatherDisplay:10.37,2013-01-10 13:40:00,
2013-01-10 08:45:00,57.8,54.3,30.50,NNE,26,1.5,6.9,88,0.00,OVC,,0.00,0.0,WeatherDisplay:10.37,2013-01-10 13:45:00,
2013-01-10 08:50:00,58.5,54.3,30.50,ESE,115,2.9,8.1,86,0.00,OVC,,0.00,0.0,WeatherDisplay:10.37,2013-01-10 13:50:00,
2013-01-10 08:55:00,59.1,53.9,30.50,NE,55,5.9,10.4,83,0.00,OVC,,0.00,0.0,WeatherDisplay:10.37,2013-01-10 13:55:00,
2013-01-10 09:00:00,59.6,54.1,30.50,ENE,57,3.3,4.6,82,0.00,OVC,,0.00,0.0,WeatherDisplay:10.37,2013-01-10 14:00:00,
2013-01-10 09:05:00,60.1,53.9,30.50,NE,47,5.0,6.9,80,0.00,OVC,,0.00,0.0,WeatherDisplay:10.37,2013-01-10 14:05:00,
2013-01-10 09:10:00,60.7,54.1,30.50,NE,49,6.7,9.2,79,0.00,OVC,,0.00,0.0,WeatherDisplay:10.37,2013-01-10 14:10:00,
2013-01-10 09:15:00,61.1,54.2,30.50,ENE,67,7.9,11.5,78,0.00,OVC,,0.00,0.0,WeatherDisplay:10.37,2013-01-10 14:15:00,
2013-01-10 09:20:00,61.4,54.1,30.50,North,5,4.9,8.1,77,0.00,OVC,,0.00,0.0,WeatherDisplay:10.37,2013-01-10 14:20:00,
2013-01-10 09:25:00,61.7,54.1,30.50,ENE,57,5.5,8.1,76,0.00,OVC,,0.00,0.0,WeatherDisplay:10.37,2013-01-10 14:25:00,
2013-01-10 09:30:00,62.0,54.0,30.50,NE,55,4.3,8.1,75,0.00,OVC,,0.00,0.0,WeatherDisplay:10.37,2013-01-10 14:30:00,
2013-01-10 09:35:00,62.3,53.9,30.50,NNW,345,5.3,9.2,74,0.00,OVC,,0.00,0.0,WeatherDisplay:10.37,2013-01-10 14:35:00,
2013-01-10 09:40:00,62.6,53.8,30.50,North,5,6.5,11.5,73,0.00,OVC,,0.00,0.0,WeatherDisplay:10.37,2013-01-10 14:40:00,
2013-01-10 09:45:00,63.0,53.8,30.50,NE,53,6.2,11.5,72,0.00,OVC,,0.00,0.0,WeatherDisplay:10.37,2013-01-10 14:45:00,
2013-01-10 09:50:00,63.0,53.8,30.50,NE,45,4.3,6.9,72,0.00,OVC,,0.00,0.0,WeatherDisplay:10.37,2013-01-10 14:50:00,
2013-01-10 09:55:00,63.1,53.9,30.50,NE,34,4.6,9.2,72,0.00,OVC,,0.00,0.0,WeatherDisplay:10.37,2013-01-10 14:55:00,
2013-01-10 10:00:00,63.3,54.1,30.50,NNE,30,4.1,9.2,72,0.00,OVC,,0.00,0.0,WeatherDisplay:10.37,2013-01-10 15:00:00,
2013-01-10 10:05:00,63.5,54.3,30.50,NE,38,1.7,3.5,72,0.00,OVC,,0.00,0.0,WeatherDisplay:10.37,2013-01-10 15:05:00,
2013-01-10 10:10:00,64.0,54.0,30.50,NNE,14,7.0,11.5,70,0.00,OVC,,0.00,0.0,WeatherDisplay:10.37,2013-01-10 15:10:00,
2013-01-10 10:15:00,64.6,54.2,30.50,NNE,32,7.2,10.4,69,0.00,OVC,,0.00,0.0,WeatherDisplay:10.37,2013-01-10 15:15:00,
2013-01-10 10:20:00,64.9,54.1,30.49,NE,51,6.5,9.2,68,0.00,OVC,,0.00,0.0,WeatherDisplay:10.37,2013-01-10 15:20:00,
2013-01-10 10:25:00,65.3,54.5,30.49,ENE,63,4.6,6.9,68,0.00,OVC,,0.00,0.0,WeatherDisplay:10.37,2013-01-10 15:25:00,
2013-01-10 10:30:00,65.9,54.2,30.50,North,10,4.3,9.2,66,0.00,OVC,,0.00,0.0,WeatherDisplay:10.37,2013-01-10 15:30:00,
2013-01-10 10:35:00,66.4,54.3,30.50,NE,45,7.3,10.4,65,0.00,OVC,,0.00,0.0,WeatherDisplay:10.37,2013-01-10 15:35:00,
2013-01-10 10:40:00,66.7,54.6,30.50,NE,40,5.4,8.1,65,0.00,OVC,,0.00,0.0,WeatherDisplay:10.37,2013-01-10 15:40:00,
2013-01-10 10:45:00,66.2,54.1,30.50,ENE,75,6.9,11.5,65,0.00,OVC,,0.00,0.0,WeatherDisplay:10.37,2013-01-10 15:45:00,
2013-01-10 10:50:00,65.5,53.8,30.50,NE,39,8.5,15.0,66,0.00,OVC,,0.00,0.0,WeatherDisplay:10.37,2013-01-10 15:50:00,
2013-01-10 10:55:00,65.0,53.8,30.49,East,80,7.1,10.4,67,0.00,OVC,,0.00,0.0,WeatherDisplay:10.37,2013-01-10 15:55:00,
2013-01-10 11:00:00,64.7,53.5,30.49,ENE,57,6.4,9.2,67,0.00,OVC,,0.00,0.0,WeatherDisplay:10.37,2013-01-10 16:00:00,
2013-01-10 11:05:00,64.8,53.6,30.49,ENE,63,7.6,12.7,67,0.00,OVC,,0.00,0.0,WeatherDisplay:10.37,2013-01-10 16:05:00,
2013-01-10 11:11:00,64.3,53.1,30.49,ENE,57,8.7,15.0,67,0.00,OVC,,0.00,0.0,WeatherDisplay:10.37,2013-01-10 16:11:00,
2013-01-10 11:16:00,64.4,54.0,30.48,East,89,6.8,11.5,69,0.00,OVC,,0.00,0.0,WeatherDisplay:10.37,2013-01-10 16:16:00,
2013-01-10 11:21:00,64.2,53.4,30.48,East,80,9.7,11.5,68,0.00,OVC,,0.00,0.0,WeatherDisplay:10.37,2013-01-10 16:21:00,
2013-01-10 11:26:00,63.8,53.0,30.48,ENE,65,10.5,19.0,68,0.00,OVC,,0.00,0.0,WeatherDisplay:10.37,2013-01-10 16:26:00,
2013-01-10 11:31:00,63.6,52.8,30.48,NE,44,11.3,16.1,68,0.00,OVC,,0.00,0.0,WeatherDisplay:10.37,2013-01-10 16:31:00,
2013-01-10 11:36:00,63.5,52.3,30.47,East,84,7.8,12.7,67,0.00,OVC,,0.00,0.0,WeatherDisplay:10.37,2013-01-10 16:36:00,
2013-01-10 11:41:00,63.5,51.9,30.47,NNE,31,8.3,13.0,66,0.00,OVC,,0.00,0.0,WeatherDisplay:10.37,2013-01-10 16:41:00,
2013-01-10 11:46:00,63.2,51.2,30.46,North,11,6.7,12.7,65,0.00,OVC,,0.00,0.0,WeatherDisplay:10.37,2013-01-10 16:46:00,
2013-01-10 11:51:00,63.0,50.2,30.46,NE,54,8.8,12.7,63,0.00,OVC,,0.00,0.0,WeatherDisplay:10.37,2013-01-10 16:51:00,
2013-01-10 11:56:00,63.1,49.4,30.46,NE,44,12.9,19.6,61,0.00,OVC,,0.00,0.0,WeatherDisplay:10.37,2013-01-10 16:56:00,
2013-01-10 12:01:00,63.0,48.9,30.46,East,92,9.2,20.7,60,0.00,OVC,,0.00,0.0,WeatherDisplay:10.37,2013-01-10 17:01:00,
2013-01-10 12:06:00,63.0,49.3,30.46,NE,40,7.2,12.7,61,0.00,OVC,,0.00,0.0,WeatherDisplay:10.37,2013-01-10 17:06:00,
2013-01-10 12:11:00,62.9,49.2,30.45,NNE,26,9.2,19.6,61,0.00,OVC,,0.00,0.0,WeatherDisplay:10.37,2013-01-10 17:11:00,
2013-01-10 12:16:00,62.9,49.7,30.46,ENE,71,8.8,15.0,62,0.00,OVC,,0.00,0.0,WeatherDisplay:10.37,2013-01-10 17:16:00,
2013-01-10 12:21:00,63.1,49.0,30.46,East,85,9.8,13.8,60,0.00,OVC,,0.00,0.0,WeatherDisplay:10.37,2013-01-10 17:21:00,
2013-01-10 12:26:00,63.4,49.3,30.45,NE,50,6.2,12.7,60,0.00,OVC,,0.00,0.0,WeatherDisplay:10.37,2013-01-10 17:26:00,
2013-01-10 12:31:00,63.6,49.0,30.45,NNW,345,6.9,9.2,59,0.00,OVC,,0.00,0.0,WeatherDisplay:10.37,2013-01-10 17:31:00,
2013-01-10 12:36:00,64.0,48.5,30.45,NE,52,7.9,12.7,57,0.00,OVC,,0.00,0.0,WeatherDisplay:10.37,2013-01-10 17:36:00,
2013-01-10 12:41:00,63.7,46.7,30.45,NE,42,9.8,16.1,54,0.00,OVC,,0.00,0.0,WeatherDisplay:10.37,2013-01-10 17:41:00,
2013-01-10 12:46:00,63.4,47.4,30.45,ENE,78,10.9,16.1,56,0.00,OVC,,0.00,0.0,WeatherDisplay:10.37,2013-01-10 17:46:00,
2013-01-10 12:51:00,63.2,47.7,30.45,NE,36,6.7,15.0,57,0.00,OVC,,0.00,0.0,WeatherDisplay:10.37,2013-01-10 17:51:00,
2013-01-10 12:56:00,63.5,47.5,30.45,ENE,57,9.3,17.3,56,0.00,OVC,,0.00,0.0,WeatherDisplay:10.37,2013-01-10 17:56:00,
2013-01-10 13:01:00,63.6,48.1,30.45,ENE,62,6.5,13.0,57,0.00,OVC,,0.00,0.0,WeatherDisplay:10.37,2013-01-10 18:01:00,
2013-01-10 13:06:00,63.9,48.4,30.45,NE,47,8.9,13.0,57,0.00,OVC,,0.00,0.0,WeatherDisplay:10.37,2013-01-10 18:06:00,
2013-01-10 13:11:00,64.1,48.5,30.45,NE,51,5.6,9.2,57,0.00,OVC,,0.00,0.0,WeatherDisplay:10.37,2013-01-10 18:11:00,
2013-01-10 13:16:00,64.5,48.4,30.44,ENE,67,8.1,15.0,56,0.00,OVC,,0.00,0.0,WeatherDisplay:10.37,2013-01-10 18:16:00,
2013-01-10 13:21:00,64.6,48.5,30.45,NE,55,5.7,11.5,56,0.00,OVC,,0.00,0.0,WeatherDisplay:10.37,2013-01-10 18:21:00,
2013-01-10 13:26:00,64.6,49.0,30.44,ENE,74,7.5,11.0,57,0.00,OVC,,0.00,0.0,WeatherDisplay:10.37,2013-01-10 18:26:00,
2013-01-10 13:31:00,64.4,48.4,30.44,ENE,59,8.5,13.8,56,0.00,OVC,,0.00,0.0,WeatherDisplay:10.37,2013-01-10 18:31:00,
2013-01-10 13:36:00,64.4,48.8,30.44,ENE,63,1.6,10.4,57,0.00,OVC,,0.00,0.0,WeatherDisplay:10.37,2013-01-10 18:36:00,
2013-01-10 13:41:00,64.2,47.7,30.44,ENE,57,7.4,12.7,55,0.00,OVC,,0.00,0.0,WeatherDisplay:10.37,2013-01-10 18:41:00,
2013-01-10 13:46:00,63.8,48.3,30.44,NE,36,7.4,11.5,57,0.00,OVC,,0.00,0.0,WeatherDisplay:10.37,2013-01-10 18:46:00,
2013-01-10 13:51:00,63.3,47.8,30.44,NE,52,7.1,10.4,57,0.00,OVC,,0.00,0.0,WeatherDisplay:10.37,2013-01-10 18:51:00,
2013-01-10 13:56:00,63.2,48.2,30.44,NW,321,5.2,8.1,58,0.00,OVC,,0.00,0.0,WeatherDisplay:10.37,2013-01-10 18:56:00,
2013-01-10 14:01:00,63.4,47.9,30.44,East,96,7.5,11.5,57,0.00,OVC,,0.00,0.0,WeatherDisplay:10.37,2013-01-10 19:01:00,
2013-01-10 14:06:00,63.5,48.0,30.44,SE,142,7.9,11.5,57,0.00,OVC,,0.00,0.0,WeatherDisplay:10.37,2013-01-10 19:06:00,
2013-01-10 14:11:00,63.3,47.3,30.44,ENE,72,7.0,11.5,56,0.00,OVC,,0.00,0.0,WeatherDisplay:10.37,2013-01-10 19:11:00,
2013-01-10 14:16:00,63.0,47.5,30.45,ENE,65,5.7,11.5,57,0.00,OVC,,0.00,0.0,WeatherDisplay:10.37,2013-01-10 19:16:00,
2013-01-10 14:21:00,62.9,47.9,30.45,NE,42,5.0,10.4,58,0.00,OVC,,0.00,0.0,WeatherDisplay:10.37,2013-01-10 19:21:00,
2013-01-10 14:26:00,63.2,48.2,30.45,ESE,102,6.4,9.2,58,0.00,OVC,,0.00,0.0,WeatherDisplay:10.37,2013-01-10 19:26:00,
2013-01-10 14:32:00,63.2,47.7,30.45,East,95,4.8,9.2,57,0.00,OVC,,0.00,0.0,WeatherDisplay:10.37,2013-01-10 19:32:00,
2013-01-10 14:37:00,63.4,47.9,30.45,East,79,3.6,11.5,57,0.00,OVC,,0.00,0.0,WeatherDisplay:10.37,2013-01-10 19:37:00,
2013-01-10 14:42:00,63.4,47.4,30.46,East,94,7.1,10.4,56,0.00,OVC,,0.00,0.0,WeatherDisplay:10.37,2013-01-10 19:42:00,
2013-01-10 14:47:00,63.0,47.5,30.46,ENE,75,6.9,11.5,57,0.00,OVC,,0.00,0.0,WeatherDisplay:10.37,2013-01-10 19:47:00,
2013-01-10 14:53:00,62.9,47.9,30.46,East,94,5.0,6.9,58,0.00,OVC,,0.00,0.0,WeatherDisplay:10.37,2013-01-10 19:53:00,
2013-01-10 14:58:00,63.2,48.2,30.46,ENE,77,4.3,10.4,58,0.00,OVC,,0.00,0.0,WeatherDisplay:10.37,2013-01-10 19:58:00,
2013-01-10 15:03:00,63.5,48.0,30.46,ENE,67,4.9,8.1,57,0.00,OVC,,0.00,0.0,WeatherDisplay:10.37,2013-01-10 20:03:00,
2013-01-10 15:08:00,63.6,47.6,30.46,East,82,5.9,11.0,56,0.00,OVC,,0.00,0.0,WeatherDisplay:10.37,2013-01-10 20:08:00,
2013-01-10 15:13:00,63.6,47.1,30.46,East,97,7.6,11.5,55,0.00,OVC,,0.00,0.0,WeatherDisplay:10.37,2013-01-10 20:13:00,
2013-01-10 15:18:00,63.4,47.4,30.46,NE,41,8.6,13.8,56,0.00,OVC,,0.00,0.0,WeatherDisplay:10.37,2013-01-10 20:18:00,
2013-01-10 15:23:00,63.3,47.3,30.46,NE,40,7.1,12.7,56,0.00,OVC,,0.00,0.0,WeatherDisplay:10.37,2013-01-10 20:23:00,
2013-01-10 15:28:00,63.1,47.1,30.46,NNE,17,9.0,12.7,56,0.00,OVC,,0.00,0.0,WeatherDisplay:10.37,2013-01-10 20:28:00,
2013-01-10 15:33:00,62.6,47.1,30.46,NE,49,7.5,11.5,57,0.00,OVC,,0.00,0.0,WeatherDisplay:10.37,2013-01-10 20:33:00,
2013-01-10 15:38:00,62.4,47.0,30.46,NE,46,6.9,8.1,57,0.00,OVC,,0.00,0.0,WeatherDisplay:10.37,2013-01-10 20:38:00,
2013-01-10 15:43:00,62.5,47.1,30.46,NE,50,6.8,9.0,57,0.00,OVC,,0.00,0.0,WeatherDisplay:10.37,2013-01-10 20:43:00,
2013-01-10 15:48:00,62.4,47.4,30.46,ENE,74,5.1,7.0,58,0.00,OVC,,0.00,0.0,WeatherDisplay:10.37,2013-01-10 20:48:00,
2013-01-10 15:53:00,62.3,46.9,30.46,East,86,5.1,8.0,57,0.00,OVC,,0.00,0.0,WeatherDisplay:10.37,2013-01-10 20:53:00,
2013-01-10 15:58:00,62.3,46.9,30.46,ENE,61,4.9,9.2,57,0.00,OVC,,0.00,0.0,WeatherDisplay:10.37,2013-01-10 20:58:00,
2013-01-10 16:03:00,62.2,46.3,30.45,ENE,57,5.2,11.5,56,0.00,OVC,,0.00,0.0,WeatherDisplay:10.37,2013-01-10 21:03:00,
2013-01-10 16:08:00,62.1,46.2,30.45,NE,34,7.0,10.4,56,0.00,OVC,,0.00,0.0,WeatherDisplay:10.37,2013-01-10 21:08:00,
2013-01-10 16:13:00,61.8,45.5,30.46,ENE,57,6.9,10.4,55,0.00,OVC,,0.00,0.0,WeatherDisplay:10.37,2013-01-10 21:13:00,
2013-01-10 16:18:00,61.4,45.6,30.45,NE,56,4.6,6.9,56,0.00,OVC,,0.00,0.0,WeatherDisplay:10.37,2013-01-10 21:18:00,
2013-01-10 16:23:00,61.0,44.7,30.46,NE,46,8.9,11.5,55,0.00,OVC,,0.00,0.0,WeatherDisplay:10.37,2013-01-10 21:23:00,
2013-01-10 16:28:00,60.2,44.4,30.46,NW,311,7.2,9.2,56,0.00,OVC,,0.00,0.0,WeatherDisplay:10.37,2013-01-10 21:28:00,
2013-01-10 16:33:00,59.7,44.4,30.46,ENE,65,6.7,8.1,57,0.00,OVC,,0.00,0.0,WeatherDisplay:10.37,2013-01-10 21:33:00,
2013-01-10 16:38:00,59.3,44.5,30.46,ENE,74,5.7,6.9,58,0.00,OVC,,0.00,0.0,WeatherDisplay:10.37,2013-01-10 21:38:00,
2013-01-10 16:43:00,58.9,44.1,30.46,ESE,103,6.1,10.4,58,0.00,OVC,,0.00,0.0,WeatherDisplay:10.37,2013-01-10 21:43:00,
2013-01-10 16:48:00,58.7,44.4,30.46,ENE,61,7.0,12.7,59,0.00,OVC,,0.00,0.0,WeatherDisplay:10.37,2013-01-10 21:48:00,
2013-01-10 16:53:00,58.5,44.2,30.46,ENE,69,4.2,5.0,59,0.00,OVC,,0.00,0.0,WeatherDisplay:10.37,2013-01-10 21:53:00,
2013-01-10 16:58:00,58.2,43.9,30.46,NE,55,4.5,9.2,59,0.00,OVC,,0.00,0.0,WeatherDisplay:10.37,2013-01-10 21:58:00,
2013-01-10 17:03:00,57.8,43.1,30.46,NE,46,5.8,10.4,58,0.00,OVC,,0.00,0.0,WeatherDisplay:10.37,2013-01-10 22:03:00,
2013-01-10 17:08:00,57.5,42.8,30.46,ENE,64,3.0,5.8,58,0.00,OVC,,0.00,0.0,WeatherDisplay:10.37,2013-01-10 22:08:00,
2013-01-10 17:13:00,57.2,43.0,30.46,ENE,60,6.0,8.1,59,0.00,OVC,,0.00,0.0,WeatherDisplay:10.37,2013-01-10 22:13:00,
2013-01-10 17:18:00,56.9,42.7,30.46,ENE,74,4.8,6.9,59,0.00,OVC,,0.00,0.0,WeatherDisplay:10.37,2013-01-10 22:18:00,
2013-01-10 17:23:00,56.7,43.0,30.46,NE,53,4.8,6.9,60,0.00,OVC,,0.00,0.0,WeatherDisplay:10.37,2013-01-10 22:23:00,
2013-01-10 17:28:00,56.4,43.1,30.46,ENE,75,2.6,3.5,61,0.00,OVC,,0.00,0.0,WeatherDisplay:10.37,2013-01-10 22:28:00,
2013-01-10 17:33:00,56.2,43.3,30.46,ENE,63,4.9,8.1,62,0.00,OVC,,0.00,0.0,WeatherDisplay:10.37,2013-01-10 22:33:00,
2013-01-10 17:38:00,55.9,43.1,30.46,NE,49,4.0,5.8,62,0.00,OVC,,0.00,0.0,WeatherDisplay:10.37,2013-01-10 22:38:00,
2013-01-10 17:43:00,55.8,43.4,30.46,ENE,65,2.6,3.5,63,0.00,OVC,,0.00,0.0,WeatherDisplay:10.37,2013-01-10 22:43:00,
2013-01-10 17:48:00,55.6,43.6,30.46,ENE,57,3.0,3.5,64,0.00,OVC,,0.00,0.0,WeatherDisplay:10.37,2013-01-10 22:48:00,
2013-01-10 17:53:00,55.4,43.8,30.46,NNE,32,1.3,3.5,65,0.00,CLR,OVC,0.00,0.0,WeatherDisplay:10.37,2013-01-10 22:53:00,
2013-01-10 17:58:00,55.3,43.7,30.46,ENE,58,1.9,3.5,65,0.00,CLR,OVC,0.00,0.0,WeatherDisplay:10.37,2013-01-10 22:58:00,
2013-01-10 18:03:00,55.1,43.5,30.46,ENE,59,2.6,4.0,65,0.00,CLR,OVC,0.00,0.0,WeatherDisplay:10.37,2013-01-10 23:03:00,
2013-01-10 18:08:00,55.0,43.8,30.46,NE,49,3.4,4.6,66,0.00,CLR,OVC,0.00,0.0,WeatherDisplay:10.37,2013-01-10 23:08:00,
2013-01-10 18:13:00,54.8,43.7,30.46,ENE,74,3.3,5.8,66,0.00,CLR,OVC,0.00,0.0,WeatherDisplay:10.37,2013-01-10 23:13:00,
2013-01-10 18:18:00,54.7,44.0,30.46,NE,46,2.3,3.5,67,0.00,CLR,OVC,0.00,0.0,WeatherDisplay:10.37,2013-01-10 23:18:00,
2013-01-10 18:23:00,54.6,43.9,30.47,ENE,67,2.7,7.0,67,0.00,CLR,OVC,0.00,0.0,WeatherDisplay:10.37,2013-01-10 23:23:00,
2013-01-10 18:28:00,54.6,44.2,30.47,ENE,77,3.7,5.8,68,0.00,CLR,OVC,0.00,0.0,WeatherDisplay:10.37,2013-01-10 23:28:00,
2013-01-10 18:33:00,54.5,44.5,30.46,NE,49,2.8,4.6,69,0.00,CLR,OVC,0.00,0.0,WeatherDisplay:10.37,2013-01-10 23:33:00,
2013-01-10 18:38:00,54.4,44.4,30.46,NNE,30,2.8,5.0,69,0.00,CLR,OVC,0.00,0.0,WeatherDisplay:10.37,2013-01-10 23:38:00,
2013-01-10 18:43:00,54.3,44.7,30.46,NE,47,3.1,4.6,70,0.00,CLR,OVC,0.00,0.0,WeatherDisplay:10.37,2013-01-10 23:43:00,
2013-01-10 18:48:00,54.3,45.1,30.47,NE,47,3.4,5.0,71,0.00,CLR,OVC,0.00,0.0,WeatherDisplay:10.37,2013-01-10 23:48:00,
2013-01-10 18:53:00,54.2,45.0,30.47,NE,50,3.1,4.6,71,0.00,CLR,OVC,0.00,0.0,WeatherDisplay:10.37,2013-01-10 23:53:00,
2013-01-10 18:58:00,54.2,45.0,30.47,NNE,25,0.9,4.0,71,0.00,CLR,OVC,0.00,0.0,WeatherDisplay:10.37,2013-01-10 23:58:00,
2013-01-10 19:03:00,54.1,44.9,30.46,NE,49,2.9,6.9,71,0.00,CLR,OVC,0.00,0.0,WeatherDisplay:10.37,2013-01-11 00:03:00,
2013-01-10 19:08:00,54.0,44.8,30.46,NE,51,1.8,3.5,71,0.00,CLR,OVC,0.00,0.0,WeatherDisplay:10.37,2013-01-11 00:08:00,
2013-01-10 19:13:00,53.9,44.7,30.46,NE,53,2.9,3.5,71,0.00,CLR,OVC,0.00,0.0,WeatherDisplay:10.37,2013-01-11 00:13:00,
2013-01-10 19:18:00,53.8,44.2,30.46,NE,47,1.3,3.5,70,0.00,CLR,OVC,0.00,0.0,WeatherDisplay:10.37,2013-01-11 00:18:00,
2013-01-10 19:24:00,53.7,43.8,30.46,NE,40,4.3,6.9,69,0.00,CLR,OVC,0.00,0.0,WeatherDisplay:10.37,2013-01-11 00:24:00,
2013-01-10 19:29:00,53.7,43.4,30.46,East,80,2.5,4.6,68,0.00,CLR,OVC,0.00,0.0,WeatherDisplay:10.37,2013-01-11 00:29:00,
2013-01-10 19:34:00,53.7,43.0,30.46,NE,46,3.6,6.0,67,0.00,CLR,OVC,0.00,0.0,WeatherDisplay:10.37,2013-01-11 00:34:00,
2013-01-10 19:39:00,53.7,42.2,30.46,NE,55,2.0,9.2,65,0.00,CLR,OVC,0.00,0.0,WeatherDisplay:10.37,2013-01-11 00:39:00,
2013-01-10 19:44:00,53.9,42.0,30.46,ENE,58,3.5,8.1,64,0.00,CLR,OVC,0.00,0.0,WeatherDisplay:10.37,2013-01-11 00:44:00,
2013-01-10 19:49:00,53.9,41.6,30.46,NNE,31,3.8,6.9,63,0.00,CLR,OVC,0.00,0.0,WeatherDisplay:10.37,2013-01-11 00:49:00,
2013-01-10 19:54:00,54.0,40.8,30.46,ENE,71,6.6,10.0,61,0.00,CLR,OVC,0.00,0.0,WeatherDisplay:10.37,2013-01-11 00:54:00,
2013-01-10 19:59:00,54.1,40.1,30.46,ENE,71,5.3,7.0,59,0.00,CLR,OVC,0.00,0.0,WeatherDisplay:10.37,2013-01-11 00:59:00,
2013-01-10 20:04:00,54.1,39.6,30.46,NE,44,3.1,4.6,58,0.00,CLR,OVC,0.00,0.0,WeatherDisplay:10.37,2013-01-11 01:04:00,
2013-01-10 20:09:00,54.1,39.2,30.46,NE,55,4.5,7.0,57,0.00,CLR,OVC,0.00,0.0,WeatherDisplay:10.37,2013-01-11 01:09:00,
2013-01-10 20:14:00,54.1,39.2,30.46,NE,53,7.1,11.5,57,0.00,CLR,OVC,0.00,0.0,WeatherDisplay:10.37,2013-01-11 01:14:00,
2013-01-10 20:19:00,54.1,39.2,30.46,NE,55,3.3,8.1,57,0.00,CLR,OVC,0.00,0.0,WeatherDisplay:10.37,2013-01-11 01:19:00,
2013-01-10 20:24:00,54.1,39.2,30.46,NE,45,4.0,6.9,57,0.00,CLR,OVC,0.00,0.0,WeatherDisplay:10.37,2013-01-11 01:24:00,
2013-01-10 20:29:00,54.1,39.2,30.46,NE,53,4.5,5.8,57,0.00,CLR,OVC,0.00,0.0,WeatherDisplay:10.37,2013-01-11 01:29:00,
2013-01-10 20:34:00,54.1,39.2,30.46,NE,48,2.6,4.6,57,0.00,CLR,OVC,0.00,0.0,WeatherDisplay:10.37,2013-01-11 01:34:00,
2013-01-10 20:39:00,54.1,39.2,30.46,NNE,18,5.2,6.9,57,0.00,CLR,OVC,0.00,0.0,WeatherDisplay:10.37,2013-01-11 01:39:00,
2013-01-10 20:44:00,54.0,39.1,30.46,NE,40,4.1,6.9,57,0.00,CLR,OVC,0.00,0.0,WeatherDisplay:10.37,2013-01-11 01:44:00,
2013-01-10 20:49:00,54.0,39.5,30.46,NE,51,5.6,10.4,58,0.00,CLR,OVC,0.00,0.0,WeatherDisplay:10.37,2013-01-11 01:49:00,
2013-01-10 20:54:00,53.9,39.5,30.45,NNW,346,4.0,6.9,58,0.00,CLR,OVC,0.00,0.0,WeatherDisplay:10.37,2013-01-11 01:54:00,
2013-01-10 20:59:00,53.8,39.8,30.45,NE,34,4.4,6.9,59,0.00,CLR,OVC,0.00,0.0,WeatherDisplay:10.37,2013-01-11 01:59:00,
2013-01-10 21:04:00,53.6,40.0,30.45,ENE,64,6.2,8.1,60,0.00,CLR,OVC,0.00,0.0,WeatherDisplay:10.37,2013-01-11 02:04:00,
2013-01-10 21:10:00,53.5,40.4,30.45,ENE,57,3.5,6.9,61,0.00,CLR,OVC,0.00,0.0,WeatherDisplay:10.37,2013-01-11 02:10:00,
2013-01-10 21:15:00,53.4,40.3,30.45,NNE,16,2.7,5.8,61,0.00,CLR,OVC,0.00,0.0,WeatherDisplay:10.37,2013-01-11 02:15:00,
2013-01-10 21:20:00,53.3,40.6,30.45,ENE,59,3.5,4.6,62,0.00,CLR,OVC,0.00,0.0,WeatherDisplay:10.37,2013-01-11 02:20:00,
2013-01-10 21:25:00,53.2,40.9,30.45,NE,47,4.5,8.1,63,0.00,CLR,OVC,0.00,0.0,WeatherDisplay:10.37,2013-01-11 02:25:00,
2013-01-10 21:30:00,53.0,41.1,30.45,East,82,1.9,4.6,64,0.00,CLR,OVC,0.00,0.0,WeatherDisplay:10.37,2013-01-11 02:30:00,
2013-01-10 21:35:00,52.8,41.0,30.45,NE,46,2.0,3.5,64,0.00,CLR,OVC,0.00,0.0,WeatherDisplay:10.37,2013-01-11 02:35:00,
2013-01-10 21:40:00,52.7,41.3,30.45,NE,47,2.2,4.6,65,0.00,CLR,OVC,0.00,0.0,WeatherDisplay:10.37,2013-01-11 02:40:00,
2013-01-10 21:45:00,52.7,41.7,30.45,ENE,75,4.7,8.1,66,0.00,CLR,OVC,0.00,0.0,WeatherDisplay:10.37,2013-01-11 02:45:00,
2013-01-10 21:50:00,52.6,41.6,30.45,ENE,62,3.4,4.6,66,0.00,CLR,OVC,0.00,0.0,WeatherDisplay:10.37,2013-01-11 02:50:00,
2013-01-10 21:55:00,52.6,41.6,30.45,ENE,66,4.9,5.8,66,0.00,CLR,OVC,0.00,0.0,WeatherDisplay:10.37,2013-01-11 02:55:00,
2013-01-10 22:00:00,52.5,41.9,30.45,NNW,331,3.9,5.8,67,0.00,CLR,OVC,0.00,0.0,WeatherDisplay:10.37,2013-01-11 03:00:00,
2013-01-10 22:05:00,52.4,41.8,30.45,NE,37,1.9,4.0,67,0.00,CLR,OVC,0.00,0.0,WeatherDisplay:10.37,2013-01-11 03:05:00,
2013-01-10 22:10:00,52.3,42.0,30.44,NNW,343,2.9,3.5,68,0.00,CLR,OVC,0.00,0.0,WeatherDisplay:10.37,2013-01-11 03:10:00,
2013-01-10 22:15:00,52.2,42.0,30.44,ENE,63,4.0,5.8,68,0.00,CLR,OVC,0.00,0.0,WeatherDisplay:10.37,2013-01-11 03:15:00,
2013-01-10 22:20:00,52.1,42.2,30.44,NE,43,6.6,11.5,69,0.00,CLR,OVC,0.00,0.0,WeatherDisplay:10.37,2013-01-11 03:20:00,
2013-01-10 22:25:00,52.0,42.1,30.44,NE,44,0.9,4.0,69,0.00,CLR,OVC,0.00,0.0,WeatherDisplay:10.37,2013-01-11 03:25:00,
2013-01-10 22:30:00,51.9,42.4,30.44,ENE,62,5.0,8.1,70,0.00,CLR,OVC,0.00,0.0,WeatherDisplay:10.37,2013-01-11 03:30:00,
2013-01-10 22:36:00,51.8,42.3,30.44,NE,48,2.9,5.8,70,0.00,CLR,OVC,0.00,0.0,WeatherDisplay:10.37,2013-01-11 03:36:00,
2013-01-10 22:41:00,51.7,42.6,30.43,ENE,74,3.9,5.8,71,0.00,CLR,OVC,0.00,0.0,WeatherDisplay:10.37,2013-01-11 03:41:00,
2013-01-10 22:46:00,51.6,42.9,30.43,NE,36,3.5,5.0,72,0.00,CLR,OVC,0.00,0.0,WeatherDisplay:10.37,2013-01-11 03:46:00,
2013-01-10 22:51:00,51.5,42.8,30.43,NE,41,5.5,9.2,72,0.00,CLR,OVC,0.00,0.0,WeatherDisplay:10.37,2013-01-11 03:51:00,
2013-01-10 22:56:00,51.4,43.0,30.43,ENE,69,3.4,4.6,73,0.00,CLR,OVC,0.00,0.0,WeatherDisplay:10.37,2013-01-11 03:56:00,
2013-01-10 23:01:00,51.4,43.0,30.43,NE,55,4.3,6.9,73,0.00,CLR,OVC,0.00,0.0,WeatherDisplay:10.37,2013-01-11 04:01:00,
2013-01-10 23:06:00,51.3,43.3,30.43,ENE,57,2.8,4.6,74,0.00,CLR,OVC,0.00,0.0,WeatherDisplay:10.37,2013-01-11 04:06:00,
2013-01-10 23:11:00,51.2,43.2,30.43,ENE,75,3.1,4.6,74,0.00,CLR,OVC,0.00,0.0,WeatherDisplay:10.37,2013-01-11 04:11:00,
2013-01-10 23:16:00,51.1,43.1,30.43,NE,46,1.8,3.5,74,0.00,CLR,OVC,0.00,0.0,WeatherDisplay:10.37,2013-01-11 04:16:00,
2013-01-10 23:21:00,51.0,43.4,30.43,ENE,61,4.4,4.6,75,0.00,CLR,OVC,0.00,0.0,WeatherDisplay:10.37,2013-01-11 04:21:00,
2013-01-10 23:26:00,50.9,43.6,30.43,ENE,64,1.9,4.6,76,0.00,CLR,OVC,0.00,0.0,WeatherDisplay:10.37,2013-01-11 04:26:00,
2013-01-10 23:31:00,50.8,43.5,30.43,NE,38,0.0,1.0,76,0.00,CLR,OVC,0.00,0.0,WeatherDisplay:10.37,2013-01-11 04:31:00,
2013-01-10 23:36:00,50.7,43.4,30.43,NE,41,0.0,1.1,76,0.00,CLR,OVC,0.00,0.0,WeatherDisplay:10.37,2013-01-11 04:36:00,
2013-01-10 23:41:00,50.6,43.7,30.43,NNE,29,0.0,0.0,77,0.00,CLR,OVC,0.00,0.0,WeatherDisplay:10.37,2013-01-11 04:41:00,
2013-01-10 23:47:00,50.4,43.5,30.43,NE,45,0.5,1.1,77,0.00,CLR,OVC,0.00,0.0,WeatherDisplay:10.37,2013-01-11 04:47:00,
2013-01-10 23:52:00,50.3,43.4,30.43,NE,43,0.0,1.1,77,0.00,CLR,OVC,0.00,0.0,WeatherDisplay:10.37,2013-01-11 04:52:00,
2013-01-10 23:57:00,50.1,43.2,30.43,NE,49,0.0,0.0,77,0.00,CLR,OVC,0.00,0.0,WeatherDisplay:10.37,2013-01-11 04:57:00,